sensor_id;sensor_type;location;lat;lon;timestamp;P1;durP1;ratioP1;P2;durP2;ratioP2
44222;SDS011;29895;48.804;9.386;2024-03-22T00:00:15;23.55;;;13.25;;
44222;SDS011;29895;48.804;9.386;2024-03-22T00:02:40;26.30;;;12.98;;
44222;SDS011;29895;48.804;9.386;2024-03-22T00:05:06;21.13;;;12.63;;
44222;SDS011;29895;48.804;9.386;2024-03-22T00:07:32;24.67;;;13.30;;
44222;SDS011;29895;48.804;9.386;2024-03-22T00:09:57;23.67;;;12.50;;
44222;SDS011;29895;48.804;9.386;2024-03-22T00:12:23;27.35;;;13.30;;
44222;SDS011;29895;48.804;9.386;2024-03-22T00:14:48;29.17;;;14.20;;
44222;SDS011;29895;48.804;9.386;2024-03-22T00:17:16;24.50;;;13.00;;
44222;SDS011;29895;48.804;9.386;2024-03-22T00:19:42;24.25;;;13.10;;
44222;SDS011;29895;48.804;9.386;2024-03-22T00:22:08;24.27;;;13.82;;
44222;SDS011;29895;48.804;9.386;2024-03-22T00:24:34;26.13;;;14.43;;
44222;SDS011;29895;48.804;9.386;2024-03-22T00:26:59;27.10;;;14.98;;
44222;SDS011;29895;48.804;9.386;2024-03-22T00:29:25;28.70;;;12.73;;
44222;SDS011;29895;48.804;9.386;2024-03-22T00:31:51;26.30;;;13.85;;
44222;SDS011;29895;48.804;9.386;2024-03-22T00:34:17;30.30;;;14.50;;
44222;SDS011;29895;48.804;9.386;2024-03-22T00:36:44;33.08;;;14.57;;
44222;SDS011;29895;48.804;9.386;2024-03-22T00:39:11;27.45;;;14.80;;
44222;SDS011;29895;48.804;9.386;2024-03-22T00:41:37;27.33;;;15.07;;
44222;SDS011;29895;48.804;9.386;2024-03-22T00:44:04;25.67;;;13.52;;
44222;SDS011;29895;48.804;9.386;2024-03-22T00:46:29;25.02;;;15.00;;
44222;SDS011;29895;48.804;9.386;2024-03-22T00:48:55;28.92;;;14.70;;
44222;SDS011;29895;48.804;9.386;2024-03-22T00:51:21;28.08;;;14.13;;
44222;SDS011;29895;48.804;9.386;2024-03-22T00:53:47;26.05;;;14.57;;
44222;SDS011;29895;48.804;9.386;2024-03-22T00:56:12;23.92;;;13.95;;
44222;SDS011;29895;48.804;9.386;2024-03-22T00:58:38;28.88;;;15.38;;
44222;SDS011;29895;48.804;9.386;2024-03-22T01:01:04;31.23;;;15.05;;
44222;SDS011;29895;48.804;9.386;2024-03-22T01:03:29;30.85;;;15.68;;
44222;SDS011;29895;48.804;9.386;2024-03-22T01:05:55;33.97;;;16.63;;
44222;SDS011;29895;48.804;9.386;2024-03-22T01:08:22;34.97;;;18.25;;
44222;SDS011;29895;48.804;9.386;2024-03-22T01:10:48;31.73;;;16.75;;
44222;SDS011;29895;48.804;9.386;2024-03-22T01:13:13;34.03;;;16.90;;
44222;SDS011;29895;48.804;9.386;2024-03-22T01:15:40;35.05;;;16.95;;
44222;SDS011;29895;48.804;9.386;2024-03-22T01:18:06;30.77;;;17.13;;
44222;SDS011;29895;48.804;9.386;2024-03-22T01:20:31;29.20;;;15.70;;
44222;SDS011;29895;48.804;9.386;2024-03-22T01:22:58;32.22;;;16.30;;
44222;SDS011;29895;48.804;9.386;2024-03-22T01:25:24;33.15;;;16.40;;
44222;SDS011;29895;48.804;9.386;2024-03-22T01:27:50;36.30;;;19.13;;
44222;SDS011;29895;48.804;9.386;2024-03-22T01:30:15;30.27;;;17.15;;
44222;SDS011;29895;48.804;9.386;2024-03-22T01:32:41;31.83;;;16.33;;
44222;SDS011;29895;48.804;9.386;2024-03-22T01:35:07;34.85;;;17.15;;
44222;SDS011;29895;48.804;9.386;2024-03-22T01:37:33;26.20;;;15.63;;
44222;SDS011;29895;48.804;9.386;2024-03-22T01:39:59;27.10;;;16.08;;
44222;SDS011;29895;48.804;9.386;2024-03-22T01:42:25;34.42;;;17.00;;
44222;SDS011;29895;48.804;9.386;2024-03-22T01:44:50;33.30;;;17.35;;
44222;SDS011;29895;48.804;9.386;2024-03-22T01:47:16;39.17;;;18.90;;
44222;SDS011;29895;48.804;9.386;2024-03-22T01:49:42;31.35;;;16.30;;
44222;SDS011;29895;48.804;9.386;2024-03-22T01:52:08;43.33;;;20.95;;
44222;SDS011;29895;48.804;9.386;2024-03-22T01:54:34;33.13;;;17.77;;
44222;SDS011;29895;48.804;9.386;2024-03-22T01:57:00;47.65;;;22.85;;
44222;SDS011;29895;48.804;9.386;2024-03-22T01:59:26;36.75;;;19.50;;
44222;SDS011;29895;48.804;9.386;2024-03-22T02:01:53;35.30;;;18.75;;
44222;SDS011;29895;48.804;9.386;2024-03-22T02:04:18;29.02;;;16.85;;
44222;SDS011;29895;48.804;9.386;2024-03-22T02:06:44;30.92;;;16.40;;
44222;SDS011;29895;48.804;9.386;2024-03-22T02:09:09;33.67;;;17.40;;
44222;SDS011;29895;48.804;9.386;2024-03-22T02:11:35;34.63;;;18.77;;
44222;SDS011;29895;48.804;9.386;2024-03-22T02:14:04;30.98;;;17.50;;
44222;SDS011;29895;48.804;9.386;2024-03-22T02:16:30;33.20;;;18.73;;
44222;SDS011;29895;48.804;9.386;2024-03-22T02:18:56;43.45;;;22.10;;
44222;SDS011;29895;48.804;9.386;2024-03-22T02:21:21;47.85;;;23.90;;
44222;SDS011;29895;48.804;9.386;2024-03-22T02:23:47;45.30;;;23.40;;
44222;SDS011;29895;48.804;9.386;2024-03-22T02:26:13;41.17;;;22.33;;
44222;SDS011;29895;48.804;9.386;2024-03-22T02:28:38;37.72;;;20.92;;
44222;SDS011;29895;48.804;9.386;2024-03-22T02:31:04;45.22;;;21.05;;
44222;SDS011;29895;48.804;9.386;2024-03-22T02:33:30;45.20;;;23.75;;
44222;SDS011;29895;48.804;9.386;2024-03-22T02:35:56;48.53;;;25.15;;
44222;SDS011;29895;48.804;9.386;2024-03-22T02:38:22;47.55;;;25.00;;
44222;SDS011;29895;48.804;9.386;2024-03-22T02:40:48;56.42;;;26.15;;
44222;SDS011;29895;48.804;9.386;2024-03-22T02:43:15;47.83;;;24.67;;
44222;SDS011;29895;48.804;9.386;2024-03-22T02:45:43;46.80;;;25.33;;
44222;SDS011;29895;48.804;9.386;2024-03-22T02:48:09;43.25;;;23.20;;
44222;SDS011;29895;48.804;9.386;2024-03-22T02:50:36;44.85;;;22.27;;
44222;SDS011;29895;48.804;9.386;2024-03-22T02:53:02;45.45;;;23.63;;
44222;SDS011;29895;48.804;9.386;2024-03-22T02:55:28;49.08;;;23.40;;
44222;SDS011;29895;48.804;9.386;2024-03-22T02:57:55;51.97;;;24.83;;
44222;SDS011;29895;48.804;9.386;2024-03-22T03:00:21;48.38;;;25.23;;
44222;SDS011;29895;48.804;9.386;2024-03-22T03:02:47;52.78;;;24.83;;
44222;SDS011;29895;48.804;9.386;2024-03-22T03:05:13;50.55;;;26.13;;
44222;SDS011;29895;48.804;9.386;2024-03-22T03:07:39;48.85;;;26.88;;
44222;SDS011;29895;48.804;9.386;2024-03-22T03:10:05;47.00;;;25.58;;
44222;SDS011;29895;48.804;9.386;2024-03-22T03:12:31;55.83;;;27.73;;
44222;SDS011;29895;48.804;9.386;2024-03-22T03:14:57;63.85;;;29.75;;
44222;SDS011;29895;48.804;9.386;2024-03-22T03:17:23;54.47;;;27.58;;
44222;SDS011;29895;48.804;9.386;2024-03-22T03:19:49;56.22;;;28.02;;
44222;SDS011;29895;48.804;9.386;2024-03-22T03:22:14;56.75;;;29.60;;
44222;SDS011;29895;48.804;9.386;2024-03-22T03:24:40;61.50;;;30.33;;
44222;SDS011;29895;48.804;9.386;2024-03-22T03:27:06;59.80;;;30.35;;
44222;SDS011;29895;48.804;9.386;2024-03-22T03:29:32;61.20;;;31.15;;
44222;SDS011;29895;48.804;9.386;2024-03-22T03:31:57;57.92;;;30.15;;
44222;SDS011;29895;48.804;9.386;2024-03-22T03:34:23;64.20;;;31.02;;
44222;SDS011;29895;48.804;9.386;2024-03-22T03:36:49;54.97;;;29.00;;
44222;SDS011;29895;48.804;9.386;2024-03-22T03:39:14;63.10;;;30.70;;
44222;SDS011;29895;48.804;9.386;2024-03-22T03:41:40;57.53;;;28.13;;
44222;SDS011;29895;48.804;9.386;2024-03-22T03:44:06;62.60;;;29.88;;
44222;SDS011;29895;48.804;9.386;2024-03-22T03:46:31;57.58;;;27.42;;
44222;SDS011;29895;48.804;9.386;2024-03-22T03:48:57;53.60;;;28.10;;
44222;SDS011;29895;48.804;9.386;2024-03-22T03:51:22;65.20;;;31.52;;
44222;SDS011;29895;48.804;9.386;2024-03-22T03:53:48;53.58;;;27.33;;
44222;SDS011;29895;48.804;9.386;2024-03-22T03:56:14;55.55;;;28.23;;
44222;SDS011;29895;48.804;9.386;2024-03-22T03:58:39;57.17;;;29.73;;
44222;SDS011;29895;48.804;9.386;2024-03-22T04:01:08;52.25;;;27.48;;
44222;SDS011;29895;48.804;9.386;2024-03-22T04:03:34;51.00;;;27.27;;
44222;SDS011;29895;48.804;9.386;2024-03-22T04:06:00;50.38;;;27.17;;
44222;SDS011;29895;48.804;9.386;2024-03-22T04:08:26;52.50;;;28.15;;
44222;SDS011;29895;48.804;9.386;2024-03-22T04:10:53;50.80;;;26.70;;
44222;SDS011;29895;48.804;9.386;2024-03-22T04:13:21;51.50;;;26.23;;
44222;SDS011;29895;48.804;9.386;2024-03-22T04:15:47;52.28;;;27.05;;
44222;SDS011;29895;48.804;9.386;2024-03-22T04:18:13;51.38;;;24.95;;
44222;SDS011;29895;48.804;9.386;2024-03-22T04:20:38;54.63;;;27.98;;
44222;SDS011;29895;48.804;9.386;2024-03-22T04:23:04;50.22;;;27.15;;
44222;SDS011;29895;48.804;9.386;2024-03-22T04:25:30;53.25;;;27.40;;
44222;SDS011;29895;48.804;9.386;2024-03-22T04:27:55;49.17;;;26.58;;
44222;SDS011;29895;48.804;9.386;2024-03-22T04:30:21;59.05;;;28.42;;
44222;SDS011;29895;48.804;9.386;2024-03-22T04:32:47;57.38;;;28.50;;
44222;SDS011;29895;48.804;9.386;2024-03-22T04:35:12;58.80;;;30.23;;
44222;SDS011;29895;48.804;9.386;2024-03-22T04:37:38;53.25;;;27.13;;
44222;SDS011;29895;48.804;9.386;2024-03-22T04:40:04;54.15;;;26.15;;
44222;SDS011;29895;48.804;9.386;2024-03-22T04:42:31;50.10;;;25.92;;
44222;SDS011;29895;48.804;9.386;2024-03-22T04:44:56;50.95;;;26.67;;
44222;SDS011;29895;48.804;9.386;2024-03-22T04:47:23;53.67;;;26.65;;
44222;SDS011;29895;48.804;9.386;2024-03-22T04:49:48;50.95;;;25.83;;
44222;SDS011;29895;48.804;9.386;2024-03-22T04:52:14;57.65;;;27.42;;
44222;SDS011;29895;48.804;9.386;2024-03-22T04:54:40;54.78;;;28.08;;
44222;SDS011;29895;48.804;9.386;2024-03-22T04:57:05;51.10;;;27.08;;
44222;SDS011;29895;48.804;9.386;2024-03-22T04:59:31;51.42;;;26.38;;
44222;SDS011;29895;48.804;9.386;2024-03-22T05:01:57;45.85;;;25.85;;
44222;SDS011;29895;48.804;9.386;2024-03-22T05:04:22;50.13;;;25.63;;
44222;SDS011;29895;48.804;9.386;2024-03-22T05:06:48;48.65;;;25.23;;
44222;SDS011;29895;48.804;9.386;2024-03-22T05:09:13;50.25;;;26.35;;
44222;SDS011;29895;48.804;9.386;2024-03-22T05:11:39;45.35;;;23.13;;
44222;SDS011;29895;48.804;9.386;2024-03-22T05:14:05;47.28;;;25.33;;
44222;SDS011;29895;48.804;9.386;2024-03-22T05:16:30;51.78;;;25.45;;
44222;SDS011;29895;48.804;9.386;2024-03-22T05:18:56;47.65;;;25.75;;
44222;SDS011;29895;48.804;9.386;2024-03-22T05:21:22;48.92;;;25.92;;
44222;SDS011;29895;48.804;9.386;2024-03-22T05:23:47;43.50;;;24.27;;
44222;SDS011;29895;48.804;9.386;2024-03-22T05:26:13;44.88;;;24.10;;
44222;SDS011;29895;48.804;9.386;2024-03-22T05:28:38;42.92;;;23.10;;
44222;SDS011;29895;48.804;9.386;2024-03-22T05:31:04;44.13;;;23.05;;
44222;SDS011;29895;48.804;9.386;2024-03-22T05:33:30;42.05;;;22.67;;
44222;SDS011;29895;48.804;9.386;2024-03-22T05:35:55;43.90;;;23.55;;
44222;SDS011;29895;48.804;9.386;2024-03-22T05:38:21;37.65;;;21.15;;
44222;SDS011;29895;48.804;9.386;2024-03-22T05:40:47;37.72;;;21.50;;
44222;SDS011;29895;48.804;9.386;2024-03-22T05:43:13;38.83;;;21.20;;
44222;SDS011;29895;48.804;9.386;2024-03-22T05:45:39;38.05;;;21.42;;
44222;SDS011;29895;48.804;9.386;2024-03-22T05:48:04;37.40;;;21.30;;
44222;SDS011;29895;48.804;9.386;2024-03-22T05:50:31;38.45;;;20.83;;
44222;SDS011;29895;48.804;9.386;2024-03-22T05:52:56;35.63;;;19.40;;
44222;SDS011;29895;48.804;9.386;2024-03-22T05:55:22;34.58;;;20.02;;
44222;SDS011;29895;48.804;9.386;2024-03-22T05:57:49;34.25;;;19.17;;
44222;SDS011;29895;48.804;9.386;2024-03-22T06:00:14;35.10;;;19.88;;
44222;SDS011;29895;48.804;9.386;2024-03-22T06:02:40;37.10;;;18.98;;
44222;SDS011;29895;48.804;9.386;2024-03-22T06:05:06;38.17;;;20.00;;
44222;SDS011;29895;48.804;9.386;2024-03-22T06:07:32;33.72;;;19.33;;
44222;SDS011;29895;48.804;9.386;2024-03-22T06:10:05;31.45;;;19.35;;
44222;SDS011;29895;48.804;9.386;2024-03-22T06:12:31;34.92;;;19.60;;
44222;SDS011;29895;48.804;9.386;2024-03-22T06:14:57;32.47;;;19.20;;
44222;SDS011;29895;48.804;9.386;2024-03-22T06:17:23;45.85;;;23.83;;
44222;SDS011;29895;48.804;9.386;2024-03-22T06:19:48;46.47;;;27.15;;
44222;SDS011;29895;48.804;9.386;2024-03-22T06:22:14;41.67;;;22.90;;
44222;SDS011;29895;48.804;9.386;2024-03-22T06:24:39;32.88;;;19.20;;
44222;SDS011;29895;48.804;9.386;2024-03-22T06:27:05;36.78;;;20.67;;
44222;SDS011;29895;48.804;9.386;2024-03-22T06:29:32;33.35;;;19.08;;
44222;SDS011;29895;48.804;9.386;2024-03-22T06:31:57;27.52;;;13.57;;
44222;SDS011;29895;48.804;9.386;2024-03-22T06:34:23;23.05;;;12.77;;
44222;SDS011;29895;48.804;9.386;2024-03-22T06:36:49;21.20;;;11.57;;
44222;SDS011;29895;48.804;9.386;2024-03-22T06:39:15;21.83;;;12.07;;
44222;SDS011;29895;48.804;9.386;2024-03-22T06:41:41;26.27;;;15.02;;
44222;SDS011;29895;48.804;9.386;2024-03-22T06:44:07;26.30;;;11.65;;
44222;SDS011;29895;48.804;9.386;2024-03-22T06:46:36;22.58;;;12.30;;
44222;SDS011;29895;48.804;9.386;2024-03-22T06:49:02;19.10;;;11.02;;
44222;SDS011;29895;48.804;9.386;2024-03-22T06:51:28;20.30;;;11.40;;
44222;SDS011;29895;48.804;9.386;2024-03-22T06:53:54;20.20;;;11.82;;
44222;SDS011;29895;48.804;9.386;2024-03-22T06:56:19;21.52;;;11.75;;
44222;SDS011;29895;48.804;9.386;2024-03-22T06:58:45;20.98;;;12.02;;
44222;SDS011;29895;48.804;9.386;2024-03-22T07:01:11;18.00;;;11.18;;
44222;SDS011;29895;48.804;9.386;2024-03-22T07:03:37;25.55;;;11.48;;
44222;SDS011;29895;48.804;9.386;2024-03-22T07:06:03;18.52;;;12.60;;
44222;SDS011;29895;48.804;9.386;2024-03-22T07:08:30;15.63;;;10.55;;
44222;SDS011;29895;48.804;9.386;2024-03-22T07:10:56;20.20;;;11.15;;
44222;SDS011;29895;48.804;9.386;2024-03-22T07:13:22;18.27;;;10.95;;
44222;SDS011;29895;48.804;9.386;2024-03-22T07:15:48;18.77;;;10.32;;
44222;SDS011;29895;48.804;9.386;2024-03-22T07:18:14;21.85;;;10.90;;
44222;SDS011;29895;48.804;9.386;2024-03-22T07:20:40;20.48;;;10.23;;
44222;SDS011;29895;48.804;9.386;2024-03-22T07:23:07;16.83;;;9.57;;
44222;SDS011;29895;48.804;9.386;2024-03-22T07:25:33;18.23;;;9.60;;
44222;SDS011;29895;48.804;9.386;2024-03-22T07:27:58;14.90;;;9.63;;
44222;SDS011;29895;48.804;9.386;2024-03-22T07:30:24;14.82;;;9.27;;
44222;SDS011;29895;48.804;9.386;2024-03-22T07:32:50;14.95;;;10.23;;
44222;SDS011;29895;48.804;9.386;2024-03-22T07:35:16;15.43;;;10.05;;
44222;SDS011;29895;48.804;9.386;2024-03-22T07:37:42;14.13;;;9.68;;
44222;SDS011;29895;48.804;9.386;2024-03-22T07:40:07;15.60;;;9.75;;
44222;SDS011;29895;48.804;9.386;2024-03-22T07:42:33;14.68;;;9.30;;
44222;SDS011;29895;48.804;9.386;2024-03-22T07:44:59;19.65;;;9.95;;
44222;SDS011;29895;48.804;9.386;2024-03-22T07:47:25;13.13;;;8.73;;
44222;SDS011;29895;48.804;9.386;2024-03-22T07:49:50;16.73;;;9.82;;
44222;SDS011;29895;48.804;9.386;2024-03-22T07:52:16;14.88;;;9.10;;
44222;SDS011;29895;48.804;9.386;2024-03-22T07:54:42;19.45;;;10.63;;
44222;SDS011;29895;48.804;9.386;2024-03-22T07:57:07;19.17;;;10.77;;
44222;SDS011;29895;48.804;9.386;2024-03-22T07:59:33;16.27;;;10.20;;
44222;SDS011;29895;48.804;9.386;2024-03-22T08:01:59;18.83;;;10.55;;
44222;SDS011;29895;48.804;9.386;2024-03-22T08:04:25;18.80;;;10.10;;
44222;SDS011;29895;48.804;9.386;2024-03-22T08:06:51;15.10;;;9.75;;
44222;SDS011;29895;48.804;9.386;2024-03-22T08:09:17;17.85;;;9.63;;
44222;SDS011;29895;48.804;9.386;2024-03-22T08:11:43;15.52;;;10.02;;
44222;SDS011;29895;48.804;9.386;2024-03-22T08:14:09;19.15;;;9.63;;
44222;SDS011;29895;48.804;9.386;2024-03-22T08:16:35;15.35;;;9.95;;
44222;SDS011;29895;48.804;9.386;2024-03-22T08:19:00;18.35;;;9.98;;
44222;SDS011;29895;48.804;9.386;2024-03-22T08:21:26;16.35;;;9.23;;
44222;SDS011;29895;48.804;9.386;2024-03-22T08:23:51;16.17;;;10.05;;
44222;SDS011;29895;48.804;9.386;2024-03-22T08:26:17;16.60;;;9.80;;
44222;SDS011;29895;48.804;9.386;2024-03-22T08:28:44;17.27;;;10.00;;
44222;SDS011;29895;48.804;9.386;2024-03-22T08:31:13;14.70;;;9.02;;
44222;SDS011;29895;48.804;9.386;2024-03-22T08:33:38;16.75;;;9.70;;
44222;SDS011;29895;48.804;9.386;2024-03-22T08:36:04;16.17;;;9.75;;
44222;SDS011;29895;48.804;9.386;2024-03-22T08:38:30;17.77;;;9.85;;
44222;SDS011;29895;48.804;9.386;2024-03-22T08:40:56;17.17;;;9.85;;
44222;SDS011;29895;48.804;9.386;2024-03-22T08:43:21;13.88;;;9.52;;
44222;SDS011;29895;48.804;9.386;2024-03-22T08:45:50;15.60;;;9.07;;
44222;SDS011;29895;48.804;9.386;2024-03-22T08:48:16;18.55;;;9.77;;
44222;SDS011;29895;48.804;9.386;2024-03-22T08:50:42;15.73;;;10.00;;
44222;SDS011;29895;48.804;9.386;2024-03-22T08:53:08;14.13;;;9.55;;
44222;SDS011;29895;48.804;9.386;2024-03-22T08:55:34;17.63;;;9.52;;
44222;SDS011;29895;48.804;9.386;2024-03-22T08:58:00;19.10;;;9.73;;
44222;SDS011;29895;48.804;9.386;2024-03-22T09:00:25;15.85;;;9.13;;
44222;SDS011;29895;48.804;9.386;2024-03-22T09:02:51;21.17;;;9.38;;
44222;SDS011;29895;48.804;9.386;2024-03-22T09:05:17;18.13;;;9.57;;
44222;SDS011;29895;48.804;9.386;2024-03-22T09:07:43;17.33;;;9.50;;
44222;SDS011;29895;48.804;9.386;2024-03-22T09:10:09;16.75;;;9.73;;
44222;SDS011;29895;48.804;9.386;2024-03-22T09:12:35;14.70;;;9.63;;
44222;SDS011;29895;48.804;9.386;2024-03-22T09:15:01;14.73;;;8.77;;
44222;SDS011;29895;48.804;9.386;2024-03-22T09:17:27;16.08;;;9.77;;
44222;SDS011;29895;48.804;9.386;2024-03-22T09:19:53;16.85;;;8.95;;
44222;SDS011;29895;48.804;9.386;2024-03-22T09:22:18;14.40;;;8.93;;
44222;SDS011;29895;48.804;9.386;2024-03-22T09:24:44;15.73;;;10.20;;
44222;SDS011;29895;48.804;9.386;2024-03-22T09:27:09;20.92;;;9.18;;
44222;SDS011;29895;48.804;9.386;2024-03-22T09:29:38;15.55;;;9.45;;
44222;SDS011;29895;48.804;9.386;2024-03-22T09:32:03;16.98;;;8.93;;
44222;SDS011;29895;48.804;9.386;2024-03-22T09:34:29;15.45;;;9.02;;
44222;SDS011;29895;48.804;9.386;2024-03-22T09:36:56;14.40;;;9.60;;
44222;SDS011;29895;48.804;9.386;2024-03-22T09:39:22;17.33;;;9.88;;
44222;SDS011;29895;48.804;9.386;2024-03-22T09:41:48;16.58;;;8.35;;
44222;SDS011;29895;48.804;9.386;2024-03-22T09:44:17;14.65;;;8.32;;
44222;SDS011;29895;48.804;9.386;2024-03-22T09:46:44;14.07;;;9.20;;
44222;SDS011;29895;48.804;9.386;2024-03-22T09:49:12;14.70;;;9.32;;
44222;SDS011;29895;48.804;9.386;2024-03-22T09:51:41;17.20;;;9.18;;
44222;SDS011;29895;48.804;9.386;2024-03-22T09:54:09;16.70;;;9.30;;
44222;SDS011;29895;48.804;9.386;2024-03-22T09:56:35;14.00;;;8.43;;
44222;SDS011;29895;48.804;9.386;2024-03-22T09:59:02;14.35;;;8.27;;
44222;SDS011;29895;48.804;9.386;2024-03-22T10:01:29;18.35;;;9.25;;
44222;SDS011;29895;48.804;9.386;2024-03-22T10:03:56;14.50;;;8.30;;
44222;SDS011;29895;48.804;9.386;2024-03-22T10:06:22;15.77;;;8.10;;
44222;SDS011;29895;48.804;9.386;2024-03-22T10:08:48;12.25;;;7.53;;
44222;SDS011;29895;48.804;9.386;2024-03-22T10:11:13;16.90;;;8.80;;
44222;SDS011;29895;48.804;9.386;2024-03-22T10:13:39;12.85;;;8.35;;
44222;SDS011;29895;48.804;9.386;2024-03-22T10:16:05;12.07;;;7.97;;
44222;SDS011;29895;48.804;9.386;2024-03-22T10:18:34;13.45;;;8.02;;
44222;SDS011;29895;48.804;9.386;2024-03-22T10:21:00;14.85;;;7.50;;
44222;SDS011;29895;48.804;9.386;2024-03-22T10:23:27;11.57;;;7.10;;
44222;SDS011;29895;48.804;9.386;2024-03-22T10:25:54;13.40;;;7.30;;
44222;SDS011;29895;48.804;9.386;2024-03-22T10:28:21;10.65;;;6.90;;
44222;SDS011;29895;48.804;9.386;2024-03-22T10:30:47;14.90;;;7.22;;
44222;SDS011;29895;48.804;9.386;2024-03-22T10:33:15;15.13;;;7.50;;
44222;SDS011;29895;48.804;9.386;2024-03-22T10:35:43;10.45;;;6.93;;
44222;SDS011;29895;48.804;9.386;2024-03-22T10:38:09;15.23;;;7.18;;
44222;SDS011;29895;48.804;9.386;2024-03-22T10:40:38;12.10;;;6.80;;
44222;SDS011;29895;48.804;9.386;2024-03-22T10:43:09;12.70;;;7.15;;
44222;SDS011;29895;48.804;9.386;2024-03-22T10:45:34;11.80;;;7.05;;
44222;SDS011;29895;48.804;9.386;2024-03-22T10:48:01;12.60;;;6.95;;
44222;SDS011;29895;48.804;9.386;2024-03-22T10:50:33;14.77;;;7.80;;
44222;SDS011;29895;48.804;9.386;2024-03-22T10:53:01;12.65;;;7.45;;
44222;SDS011;29895;48.804;9.386;2024-03-22T10:55:35;14.40;;;6.85;;
44222;SDS011;29895;48.804;9.386;2024-03-22T11:00:30;9.73;;;6.03;;
44222;SDS011;29895;48.804;9.386;2024-03-22T11:02:57;12.25;;;7.18;;
44222;SDS011;29895;48.804;9.386;2024-03-22T11:05:23;20.95;;;7.57;;
44222;SDS011;29895;48.804;9.386;2024-03-22T11:08:01;17.30;;;6.88;;
44222;SDS011;29895;48.804;9.386;2024-03-22T11:10:33;15.23;;;6.68;;
44222;SDS011;29895;48.804;9.386;2024-03-22T11:13:05;12.30;;;6.57;;
44222;SDS011;29895;48.804;9.386;2024-03-22T11:15:32;10.68;;;6.10;;
44222;SDS011;29895;48.804;9.386;2024-03-22T11:17:58;12.15;;;7.07;;
44222;SDS011;29895;48.804;9.386;2024-03-22T11:20:25;10.27;;;6.85;;
44222;SDS011;29895;48.804;9.386;2024-03-22T11:22:52;9.35;;;6.38;;
44222;SDS011;29895;48.804;9.386;2024-03-22T11:25:18;10.95;;;6.15;;
44222;SDS011;29895;48.804;9.386;2024-03-22T11:27:44;15.20;;;6.95;;
44222;SDS011;29895;48.804;9.386;2024-03-22T11:30:10;15.88;;;6.07;;
44222;SDS011;29895;48.804;9.386;2024-03-22T11:32:36;11.77;;;6.07;;
44222;SDS011;29895;48.804;9.386;2024-03-22T11:35:10;13.70;;;6.40;;
44222;SDS011;29895;48.804;9.386;2024-03-22T11:37:39;12.35;;;6.00;;
44222;SDS011;29895;48.804;9.386;2024-03-22T11:40:06;9.48;;;6.07;;
44222;SDS011;29895;48.804;9.386;2024-03-22T11:42:35;13.45;;;6.43;;
44222;SDS011;29895;48.804;9.386;2024-03-22T11:45:02;14.13;;;6.28;;
44222;SDS011;29895;48.804;9.386;2024-03-22T11:47:29;15.07;;;6.50;;
44222;SDS011;29895;48.804;9.386;2024-03-22T11:49:55;12.10;;;6.95;;
44222;SDS011;29895;48.804;9.386;2024-03-22T11:52:30;9.70;;;6.05;;
44222;SDS011;29895;48.804;9.386;2024-03-22T11:54:56;10.35;;;5.95;;
44222;SDS011;29895;48.804;9.386;2024-03-22T11:57:22;14.95;;;6.43;;
44222;SDS011;29895;48.804;9.386;2024-03-22T11:59:49;9.00;;;5.97;;
44222;SDS011;29895;48.804;9.386;2024-03-22T12:02:15;11.15;;;6.15;;
44222;SDS011;29895;48.804;9.386;2024-03-22T12:04:41;15.35;;;6.20;;
44222;SDS011;29895;48.804;9.386;2024-03-22T12:07:11;11.38;;;6.15;;
44222;SDS011;29895;48.804;9.386;2024-03-22T12:09:38;9.70;;;5.93;;
44222;SDS011;29895;48.804;9.386;2024-03-22T12:12:06;11.85;;;6.63;;
44222;SDS011;29895;48.804;9.386;2024-03-22T12:14:34;8.88;;;5.95;;
44222;SDS011;29895;48.804;9.386;2024-03-22T12:17:00;12.85;;;5.63;;
44222;SDS011;29895;48.804;9.386;2024-03-22T12:19:27;9.40;;;6.18;;
44222;SDS011;29895;48.804;9.386;2024-03-22T12:21:52;10.85;;;5.50;;
44222;SDS011;29895;48.804;9.386;2024-03-22T12:24:18;10.82;;;5.10;;
44222;SDS011;29895;48.804;9.386;2024-03-22T12:26:43;10.23;;;5.30;;
44222;SDS011;29895;48.804;9.386;2024-03-22T12:29:10;9.15;;;5.22;;
44222;SDS011;29895;48.804;9.386;2024-03-22T12:31:37;11.13;;;5.28;;
44222;SDS011;29895;48.804;9.386;2024-03-22T12:34:03;7.68;;;5.28;;
44222;SDS011;29895;48.804;9.386;2024-03-22T12:36:28;13.57;;;6.18;;
44222;SDS011;29895;48.804;9.386;2024-03-22T12:38:54;11.27;;;4.88;;
44222;SDS011;29895;48.804;9.386;2024-03-22T12:41:20;8.93;;;5.30;;
44222;SDS011;29895;48.804;9.386;2024-03-22T12:43:45;9.70;;;4.85;;
44222;SDS011;29895;48.804;9.386;2024-03-22T12:46:11;9.60;;;4.53;;
44222;SDS011;29895;48.804;9.386;2024-03-22T12:48:37;9.10;;;4.88;;
44222;SDS011;29895;48.804;9.386;2024-03-22T12:51:02;12.23;;;4.50;;
44222;SDS011;29895;48.804;9.386;2024-03-22T12:53:28;8.70;;;4.90;;
44222;SDS011;29895;48.804;9.386;2024-03-22T12:55:54;11.52;;;4.95;;
44222;SDS011;29895;48.804;9.386;2024-03-22T12:58:19;9.73;;;4.53;;
44222;SDS011;29895;48.804;9.386;2024-03-22T13:00:45;7.47;;;4.30;;
44222;SDS011;29895;48.804;9.386;2024-03-22T13:03:11;10.25;;;5.03;;
44222;SDS011;29895;48.804;9.386;2024-03-22T13:05:38;7.18;;;4.70;;
44222;SDS011;29895;48.804;9.386;2024-03-22T13:08:04;8.75;;;5.00;;
44222;SDS011;29895;48.804;9.386;2024-03-22T13:10:30;12.90;;;4.97;;
44222;SDS011;29895;48.804;9.386;2024-03-22T13:12:55;9.55;;;5.00;;
44222;SDS011;29895;48.804;9.386;2024-03-22T13:15:22;7.25;;;4.47;;
44222;SDS011;29895;48.804;9.386;2024-03-22T13:17:48;8.88;;;4.65;;
44222;SDS011;29895;48.804;9.386;2024-03-22T13:20:14;8.73;;;4.43;;
44222;SDS011;29895;48.804;9.386;2024-03-22T13:22:40;6.78;;;4.90;;
44222;SDS011;29895;48.804;9.386;2024-03-22T13:25:06;8.93;;;4.07;;
44222;SDS011;29895;48.804;9.386;2024-03-22T13:27:34;8.23;;;4.50;;
44222;SDS011;29895;48.804;9.386;2024-03-22T13:30:03;6.75;;;4.28;;
44222;SDS011;29895;48.804;9.386;2024-03-22T13:32:30;9.32;;;4.68;;
44222;SDS011;29895;48.804;9.386;2024-03-22T13:34:56;7.63;;;4.50;;
44222;SDS011;29895;48.804;9.386;2024-03-22T13:37:22;10.65;;;4.55;;
44222;SDS011;29895;48.804;9.386;2024-03-22T13:39:48;7.68;;;4.50;;
44222;SDS011;29895;48.804;9.386;2024-03-22T13:42:14;7.43;;;4.05;;
44222;SDS011;29895;48.804;9.386;2024-03-22T13:44:41;7.30;;;4.50;;
44222;SDS011;29895;48.804;9.386;2024-03-22T13:47:07;9.35;;;4.53;;
44222;SDS011;29895;48.804;9.386;2024-03-22T13:49:33;8.07;;;4.03;;
44222;SDS011;29895;48.804;9.386;2024-03-22T13:51:59;9.30;;;4.40;;
44222;SDS011;29895;48.804;9.386;2024-03-22T13:54:24;7.53;;;4.30;;
44222;SDS011;29895;48.804;9.386;2024-03-22T13:56:50;7.75;;;4.32;;
44222;SDS011;29895;48.804;9.386;2024-03-22T13:59:16;7.80;;;5.07;;
44222;SDS011;29895;48.804;9.386;2024-03-22T14:01:42;8.88;;;4.28;;
44222;SDS011;29895;48.804;9.386;2024-03-22T14:04:10;9.02;;;4.63;;
44222;SDS011;29895;48.804;9.386;2024-03-22T14:06:37;9.27;;;4.50;;
44222;SDS011;29895;48.804;9.386;2024-03-22T14:09:03;12.43;;;5.22;;
44222;SDS011;29895;48.804;9.386;2024-03-22T14:11:30;9.02;;;4.72;;
44222;SDS011;29895;48.804;9.386;2024-03-22T14:13:59;7.95;;;4.28;;
44222;SDS011;29895;48.804;9.386;2024-03-22T14:16:25;7.22;;;3.92;;
44222;SDS011;29895;48.804;9.386;2024-03-22T14:18:51;12.43;;;4.95;;
44222;SDS011;29895;48.804;9.386;2024-03-22T14:21:17;8.02;;;4.00;;
44222;SDS011;29895;48.804;9.386;2024-03-22T14:23:45;6.75;;;4.20;;